Time;durP1;ratioP1;P1;durP2;ratioP2;P2;SDS_P1;SDS_P2;PMS_P1;PMS_P2;Temp;Humidity;BMP_temperature;BMP_pressure;BME280_temperature;BME280_humidity;BME280_pressure;Samples;Min_cycle;Max_cycle;Signal;HPM_P1;HPM_P2
2023/07/05 00:01:22;;;;;;;0.20;0.20;;;;;;;;;;5092689;28;20035;-76
2023/07/05 00:03:48;;;;;;;1.10;1.05;;;;;;;;;;5076339;28;20101;-76
2023/07/05 00:06:13;;;;;;;0.20;0.20;;;;;;;;;;5093956;28;20475;-76
2023/07/05 00:08:40;;;;;;;0.20;0.20;;;;;;;;;;5094143;28;20040;-76
2023/07/05 00:11:06;;;;;;;0.20;0.20;;;;;;;;;;5093858;28;20102;-77
2023/07/05 00:13:32;;;;;;;0.20;0.20;;;;;;;;;;5093686;28;20078;-77
2023/07/05 00:15:59;;;;;;;0.22;0.22;;;;;;;;;;5074936;28;20439;-77
2023/07/05 00:18:24;;;;;;;0.20;0.20;;;;;;;;;;5093616;28;20054;-76
2023/07/05 00:20:50;;;;;;;0.20;0.20;;;;;;;;;;5092772;28;20131;-75
2023/07/05 00:23:15;;;;;;;0.73;0.57;;;;;;;;;;5093914;28;20067;-76
2023/07/05 00:25:40;;;;;;;0.20;0.20;;;;;;;;;;5094238;28;20032;-76
2023/07/05 00:28:06;;;;;;;8.77;1.98;;;;;;;;;;5094654;28;20036;-76
2023/07/05 00:30:31;;;;;;;0.30;0.30;;;;;;;;;;5093935;28;20038;-75
2023/07/05 00:32:57;;;;;;;0.75;0.75;;;;;;;;;;5093557;28;20028;-76
2023/07/05 00:35:22;;;;;;;0.20;0.20;;;;;;;;;;5075546;28;20479;-76
2023/07/05 00:37:47;;;;;;;0.20;0.20;;;;;;;;;;5075525;28;20517;-76
2023/07/05 00:40:13;;;;;;;0.55;0.30;;;;;;;;;;5093319;28;20024;-75
2023/07/05 00:42:39;;;;;;;3.67;1.27;;;;;;;;;;5075070;28;20035;-75
2023/07/05 00:45:10;;;;;;;0.20;0.20;;;;;;;;;;5091993;28;20086;-75
2023/07/05 00:47:37;;;;;;;0.20;0.20;;;;;;;;;;5093240;28;20386;-76
2023/07/05 00:50:10;;;;;;;0.22;0.22;;;;;;;;;;5093168;28;20036;-76
2023/07/05 00:52:35;;;;;;;0.20;0.20;;;;;;;;;;5093264;28;20082;-76
2023/07/05 00:55:01;;;;;;;0.10;0.10;;;;;;;;;;5075078;28;20028;-76
2023/07/05 00:57:29;;;;;;;0.20;0.20;;;;;;;;;;5092386;28;20418;-76
2023/07/05 00:59:57;;;;;;;0.20;0.20;;;;;;;;;;5056935;28;20068;-76
2023/07/05 01:02:22;;;;;;;1.98;1.58;;;;;;;;;;5093051;28;20057;-76
2023/07/05 01:04:48;;;;;;;0.20;0.20;;;;;;;;;;5074872;28;20119;-76
2023/07/05 01:07:14;;;;;;;0.20;0.20;;;;;;;;;;5093006;28;20027;-76
2023/07/05 01:09:40;;;;;;;5.70;1.13;;;;;;;;;;5092612;28;20042;-76
2023/07/05 01:12:12;;;;;;;0.17;0.17;;;;;;;;;;5092688;28;20032;-76
2023/07/05 01:14:43;;;;;;;0.80;0.80;;;;;;;;;;5091641;28;20028;-79
2023/07/05 01:17:09;;;;;;;0.20;0.20;;;;;;;;;;5093083;28;20032;-79
2023/07/05 01:19:37;;;;;;;0.40;0.40;;;;;;;;;;5092147;28;20093;-79
2023/07/05 01:22:05;;;;;;;0.52;0.52;;;;;;;;;;5092742;28;20054;-77
2023/07/05 01:25:06;;;;;;;0.80;0.80;;;;;;;;;;5074294;28;20130;-77
2023/07/05 01:28:07;;;;;;;0.30;0.30;;;;;;;;;;5014016;28;20029;-77
2023/07/05 01:30:39;;;;;;;0.88;0.88;;;;;;;;;;5012942;28;20040;-78
2023/07/05 01:33:11;;;;;;;1.05;1.05;;;;;;;;;;5067471;28;20036;-78
2023/07/05 01:35:41;;;;;;;0.20;0.20;;;;;;;;;;5096360;28;20040;-77
2023/07/05 01:38:09;;;;;;;0.20;0.20;;;;;;;;;;5096362;28;20374;-77
2023/07/05 01:40:34;;;;;;;0.50;0.50;;;;;;;;;;5077983;28;20128;-77
2023/07/05 01:43:02;;;;;;;1.17;0.52;;;;;;;;;;5096178;28;20028;-78
2023/07/05 01:45:46;;;;;;;0.25;0.25;;;;;;;;;;5095919;28;20036;-75
2023/07/05 01:48:12;;;;;;;0.20;0.20;;;;;;;;;;5096245;28;20056;-75
2023/07/05 01:50:48;;;;;;;0.35;0.35;;;;;;;;;;5095920;28;20063;-75
2023/07/05 01:53:18;;;;;;;0.20;0.20;;;;;;;;;;5096134;28;20466;-76
2023/07/05 01:55:50;;;;;;;0.20;0.20;;;;;;;;;;5077689;28;20118;-76
2023/07/05 01:58:22;;;;;;;0.32;0.32;;;;;;;;;;5078119;28;20493;-75
2023/07/05 02:00:48;;;;;;;0.10;0.10;;;;;;;;;;5094678;28;20032;-77
2023/07/05 02:03:16;;;;;;;0.20;0.20;;;;;;;;;;5095785;28;20028;-76
2023/07/05 02:05:42;;;;;;;0.50;0.50;;;;;;;;;;5077565;28;20498;-77
2023/07/05 02:08:07;;;;;;;0.20;0.20;;;;;;;;;;5095841;28;20032;-77
2023/07/05 02:10:33;;;;;;;0.20;0.20;;;;;;;;;;5077586;28;20028;-77
2023/07/05 02:13:00;;;;;;;0.25;0.25;;;;;;;;;;5077519;28;20028;-77
2023/07/05 02:15:25;;;;;;;0.10;0.10;;;;;;;;;;5094248;28;20490;-77
2023/07/05 02:17:52;;;;;;;0.20;0.20;;;;;;;;;;5077346;28;20031;-77
2023/07/05 02:20:17;;;;;;;0.20;0.20;;;;;;;;;;5077341;28;20039;-77
2023/07/05 02:22:43;;;;;;;0.30;0.30;;;;;;;;;;5095491;28;20032;-76
2023/07/05 02:25:08;;;;;;;2.40;1.38;;;;;;;;;;5095364;28;20036;-77
2023/07/05 02:27:35;;;;;;;0.20;0.20;;;;;;;;;;5078331;28;20024;-77
2023/07/05 02:30:00;;;;;;;0.20;0.20;;;;;;;;;;5076963;28;20505;-78
2023/07/05 02:32:26;;;;;;;0.17;0.17;;;;;;;;;;5095551;28;20032;-78
2023/07/05 02:34:52;;;;;;;0.20;0.20;;;;;;;;;;5077308;28;20036;-76
2023/07/05 02:37:19;;;;;;;0.20;0.20;;;;;;;;;;5077174;28;20035;-76
2023/07/05 02:39:45;;;;;;;0.20;0.20;;;;;;;;;;5077010;28;20483;-77
2023/07/05 02:42:10;;;;;;;0.52;0.52;;;;;;;;;;5077082;28;20031;-78
2023/07/05 02:44:36;;;;;;;0.65;0.65;;;;;;;;;;5076676;28;20026;-80
2023/07/05 02:47:01;;;;;;;0.20;0.20;;;;;;;;;;5077391;28;20368;-80
2023/07/05 02:49:27;;;;;;;0.20;0.20;;;;;;;;;;5094002;28;20024;-80
2023/07/05 02:51:54;;;;;;;0.20;0.20;;;;;;;;;;5095297;28;20028;-81
2023/07/05 02:54:19;;;;;;;0.20;0.20;;;;;;;;;;5095155;28;20426;-80
2023/07/05 02:56:44;;;;;;;0.20;0.20;;;;;;;;;;5093942;28;20032;-79
2023/07/05 02:59:10;;;;;;;0.20;0.20;;;;;;;;;;5095245;28;20032;-77
2023/07/05 03:01:35;;;;;;;0.55;0.55;;;;;;;;;;5093705;28;20035;-77
2023/07/05 03:04:01;;;;;;;0.25;0.25;;;;;;;;;;5089537;28;20028;-77
2023/07/05 03:06:26;;;;;;;0.20;0.20;;;;;;;;;;5090923;28;20036;-77
2023/07/05 03:08:52;;;;;;;0.20;0.20;;;;;;;;;;5072753;28;20040;-78
2023/07/05 03:11:18;;;;;;;0.20;0.20;;;;;;;;;;5072860;28;20037;-79
2023/07/05 03:13:44;;;;;;;0.20;0.20;;;;;;;;;;5072546;28;20028;-78
2023/07/05 03:16:09;;;;;;;0.20;0.20;;;;;;;;;;5091014;28;20081;-77
2023/07/05 03:18:37;;;;;;;0.30;0.30;;;;;;;;;;5071874;28;20502;-76
2023/07/05 03:21:02;;;;;;;0.20;0.20;;;;;;;;;;5072162;28;20044;-77
2023/07/05 03:23:27;;;;;;;0.20;0.20;;;;;;;;;;5090608;28;20356;-77
2023/07/05 03:25:54;;;;;;;0.20;0.20;;;;;;;;;;5072846;28;20024;-75
2023/07/05 03:28:19;;;;;;;0.20;0.20;;;;;;;;;;5090508;28;20040;-75
2023/07/05 03:30:51;;;;;;;0.22;0.22;;;;;;;;;;5072113;28;20028;-75
2023/07/05 03:33:17;;;;;;;0.20;0.20;;;;;;;;;;5072723;28;20063;-79
2023/07/05 03:35:51;;;;;;;0.47;0.47;;;;;;;;;;5089092;28;20437;-79
2023/07/05 03:38:17;;;;;;;0.60;0.60;;;;;;;;;;5071623;28;20471;-79
2023/07/05 03:40:42;;;;;;;0.20;0.20;;;;;;;;;;5070929;28;20054;-80
2023/07/05 03:43:08;;;;;;;0.20;0.20;;;;;;;;;;5069979;28;20535;-80
2023/07/05 03:45:34;;;;;;;0.47;0.45;;;;;;;;;;5081928;28;20067;-80
2023/07/05 03:47:59;;;;;;;0.20;0.20;;;;;;;;;;5089886;28;20039;-76
2023/07/05 03:50:25;;;;;;;0.20;0.20;;;;;;;;;;5089667;28;20035;-77
2023/07/05 03:52:50;;;;;;;0.20;0.20;;;;;;;;;;5089886;28;20024;-77
2023/07/05 03:55:15;;;;;;;0.20;0.20;;;;;;;;;;5088976;28;20475;-77
2023/07/05 03:57:41;;;;;;;0.20;0.20;;;;;;;;;;5082103;28;20036;-76
2023/07/05 04:00:06;;;;;;;0.20;0.20;;;;;;;;;;5067978;28;20048;-82
2023/07/05 04:02:37;;;;;;;0.20;0.20;;;;;;;;;;5071755;28;20455;-75
2023/07/05 04:05:03;;;;;;;0.30;0.30;;;;;;;;;;5088830;28;20135;-78
2023/07/05 04:07:29;;;;;;;0.10;0.10;;;;;;;;;;5093635;28;20460;-76
2023/07/05 04:09:54;;;;;;;0.20;0.20;;;;;;;;;;5080151;28;20383;-76
2023/07/05 04:12:20;;;;;;;0.10;0.10;;;;;;;;;;5085623;28;20385;-76
2023/07/05 04:14:45;;;;;;;0.30;0.30;;;;;;;;;;5092621;28;20020;-78
2023/07/05 04:17:11;;;;;;;2.10;0.55;;;;;;;;;;5066410;28;20028;-82
2023/07/05 04:19:36;;;;;;;0.20;0.20;;;;;;;;;;5077515;28;20507;-78
2023/07/05 04:22:02;;;;;;;0.20;0.20;;;;;;;;;;5078422;28;20395;-78
2023/07/05 04:24:28;;;;;;;0.30;0.30;;;;;;;;;;5084159;28;20032;-78
2023/07/05 04:26:53;;;;;;;0.20;0.20;;;;;;;;;;5082059;28;20036;-79
2023/07/05 04:29:18;;;;;;;0.60;0.60;;;;;;;;;;5085969;28;20031;-78
2023/07/05 04:31:44;;;;;;;0.20;0.20;;;;;;;;;;5076607;28;20484;-79
2023/07/05 04:34:09;;;;;;;0.20;0.20;;;;;;;;;;5077549;28;20063;-78
2023/07/05 04:36:35;;;;;;;0.10;0.10;;;;;;;;;;5079890;28;20032;-79
2023/07/05 04:39:00;;;;;;;0.20;0.20;;;;;;;;;;5071338;28;20039;-78
2023/07/05 04:41:26;;;;;;;0.20;0.20;;;;;;;;;;5065519;28;20034;-78
2023/07/05 04:43:52;;;;;;;0.20;0.20;;;;;;;;;;5086116;28;20019;-78
2023/07/05 04:46:18;;;;;;;0.20;0.20;;;;;;;;;;5059139;28;20028;-77
2023/07/05 04:48:44;;;;;;;0.30;0.30;;;;;;;;;;5075450;28;20093;-76
2023/07/05 04:51:09;;;;;;;0.20;0.20;;;;;;;;;;5064903;28;20023;-78
2023/07/05 04:53:35;;;;;;;0.20;0.20;;;;;;;;;;5083271;28;20024;-76
2023/07/05 04:56:01;;;;;;;0.20;0.20;;;;;;;;;;5088885;28;20063;-80
2023/07/05 04:58:26;;;;;;;0.20;0.20;;;;;;;;;;5067777;28;20043;-79
2023/07/05 05:00:52;;;;;;;0.20;0.20;;;;;;;;;;5085114;28;20578;-74
2023/07/05 05:03:21;;;;;;;0.22;0.22;;;;;;;;;;5088193;28;20070;-84
2023/07/05 05:05:52;;;;;;;0.20;0.20;;;;;;;;;;5053043;28;20036;-79
2023/07/05 05:08:19;;;;;;;0.20;0.20;;;;;;;;;;5078260;28;20025;-76
2023/07/05 05:10:44;;;;;;;0.20;0.20;;;;;;;;;;5078299;28;20028;-79
2023/07/05 05:13:10;;;;;;;0.20;0.20;;;;;;;;;;5088311;28;20031;-77
2023/07/05 05:15:39;;;;;;;0.20;0.20;;;;;;;;;;5088744;28;20028;-78
2023/07/05 05:18:05;;;;;;;0.20;0.20;;;;;;;;;;5089003;28;20656;-77
2023/07/05 05:20:30;;;;;;;0.20;0.20;;;;;;;;;;5081185;28;20040;-76
2023/07/05 05:22:57;;;;;;;0.50;0.50;;;;;;;;;;5086821;28;20475;-76
2023/07/05 05:25:22;;;;;;;0.20;0.20;;;;;;;;;;5085648;28;20024;-74
2023/07/05 05:27:48;;;;;;;3.88;3.63;;;;;;;;;;5046642;28;20028;-75
2023/07/05 05:30:13;;;;;;;0.20;0.20;;;;;;;;;;5088741;28;20024;-76
2023/07/05 05:32:39;;;;;;;0.20;0.20;;;;;;;;;;5088806;28;20036;-74
2023/07/05 05:35:04;;;;;;;0.20;0.20;;;;;;;;;;5088213;28;20073;-74
2023/07/05 05:37:30;;;;;;;0.20;0.20;;;;;;;;;;5087744;28;20040;-75
2023/07/05 05:39:55;;;;;;;0.20;0.20;;;;;;;;;;5069327;28;20033;-73
2023/07/05 05:42:21;;;;;;;0.20;0.20;;;;;;;;;;5087489;28;20036;-72
2023/07/05 05:44:46;;;;;;;0.20;0.20;;;;;;;;;;5072860;28;20047;-73
2023/07/05 05:47:12;;;;;;;0.20;0.20;;;;;;;;;;5083925;28;20055;-74
2023/07/05 05:49:37;;;;;;;0.35;0.35;;;;;;;;;;5080550;28;20067;-72
2023/07/05 05:52:03;;;;;;;0.22;0.22;;;;;;;;;;5083343;28;20039;-77
2023/07/05 05:54:28;;;;;;;0.20;0.20;;;;;;;;;;5061747;28;20035;-74
2023/07/05 05:56:54;;;;;;;0.20;0.20;;;;;;;;;;5079707;28;20414;-74
2023/07/05 05:59:19;;;;;;;0.20;0.20;;;;;;;;;;5084446;28;20521;-74
2023/07/05 06:01:45;;;;;;;0.20;0.20;;;;;;;;;;5087166;28;20047;-73
2023/07/05 06:04:10;;;;;;;0.20;0.20;;;;;;;;;;5072911;28;20032;-73
2023/07/05 06:06:36;;;;;;;0.20;0.20;;;;;;;;;;5085620;28;20064;-72
2023/07/05 06:09:02;;;;;;;0.30;0.30;;;;;;;;;;5086320;28;20065;-72
2023/07/05 06:11:33;;;;;;;0.30;0.30;;;;;;;;;;5061583;28;20040;-72
2023/07/05 06:14:02;;;;;;;0.30;0.30;;;;;;;;;;5063983;28;20036;-75
2023/07/05 06:16:27;;;;;;;0.20;0.20;;;;;;;;;;5080414;28;20044;-76
2023/07/05 06:18:52;;;;;;;0.30;0.30;;;;;;;;;;5088573;28;20051;-73
2023/07/05 06:21:18;;;;;;;0.40;0.40;;;;;;;;;;5069960;28;20048;-74
2023/07/05 06:23:43;;;;;;;0.20;0.20;;;;;;;;;;5091004;28;20119;-73
2023/07/05 06:26:09;;;;;;;0.30;0.30;;;;;;;;;;5081074;28;20040;-74
2023/07/05 06:28:36;;;;;;;0.63;0.50;;;;;;;;;;5083589;28;20039;-73
2023/07/05 06:31:09;;;;;;;0.22;0.22;;;;;;;;;;5087946;28;20039;-72
2023/07/05 06:33:35;;;;;;;0.20;0.20;;;;;;;;;;5085256;28;20510;-72
2023/07/05 06:36:01;;;;;;;0.25;0.25;;;;;;;;;;5086598;28;20122;-72
2023/07/05 06:38:26;;;;;;;0.30;0.30;;;;;;;;;;5083546;28;20115;-74
2023/07/05 06:40:52;;;;;;;1.25;1.15;;;;;;;;;;5085920;28;20020;-73
2023/07/05 06:43:18;;;;;;;1.88;1.35;;;;;;;;;;5049918;28;20085;-75
2023/07/05 06:45:50;;;;;;;0.20;0.20;;;;;;;;;;5090730;28;20024;-74
2023/07/05 06:48:15;;;;;;;0.25;0.25;;;;;;;;;;5090429;28;20036;-74
2023/07/05 06:50:41;;;;;;;0.43;0.43;;;;;;;;;;5090056;28;20044;-73
2023/07/05 06:53:06;;;;;;;0.30;0.30;;;;;;;;;;5090645;28;20109;-74
2023/07/05 06:55:31;;;;;;;0.30;0.30;;;;;;;;;;5076927;28;20032;-75
2023/07/05 06:57:57;;;;;;;0.20;0.20;;;;;;;;;;5091024;28;20063;-74
2023/07/05 07:00:22;;;;;;;0.30;0.30;;;;;;;;;;5090283;28;20048;-75
2023/07/05 07:02:47;;;;;;;0.30;0.30;;;;;;;;;;5090390;28;20044;-74
2023/07/05 07:05:13;;;;;;;0.45;0.45;;;;;;;;;;5051748;28;20050;-76
2023/07/05 07:07:39;;;;;;;0.30;0.30;;;;;;;;;;5070444;28;20036;-75
2023/07/05 07:10:05;;;;;;;0.90;0.90;;;;;;;;;;5080947;28;20051;-73
2023/07/05 07:12:30;;;;;;;2.05;1.15;;;;;;;;;;5089573;28;20109;-73
2023/07/05 07:14:55;;;;;;;0.30;0.30;;;;;;;;;;5085521;28;20052;-73
2023/07/05 07:17:21;;;;;;;0.30;0.30;;;;;;;;;;5070776;28;20549;-74
2023/07/05 07:19:46;;;;;;;0.30;0.30;;;;;;;;;;5071549;28;20057;-74
2023/07/05 07:22:12;;;;;;;0.20;0.20;;;;;;;;;;5068751;28;20032;-74
2023/07/05 07:24:37;;;;;;;0.30;0.30;;;;;;;;;;5089593;28;20459;-74
2023/07/05 07:27:03;;;;;;;0.30;0.30;;;;;;;;;;5087047;28;20024;-74
2023/07/05 07:29:29;;;;;;;0.30;0.30;;;;;;;;;;5089963;28;20040;-76
2023/07/05 07:31:54;;;;;;;0.30;0.30;;;;;;;;;;5086363;28;20028;-74
2023/07/05 07:34:19;;;;;;;0.25;0.25;;;;;;;;;;5088024;28;20380;-76
2023/07/05 07:36:45;;;;;;;0.98;0.77;;;;;;;;;;5068395;28;20039;-73
2023/07/05 07:39:10;;;;;;;0.88;0.68;;;;;;;;;;5089685;28;20039;-74
2023/07/05 07:41:37;;;;;;;0.60;0.60;;;;;;;;;;5086343;28;20036;-73
2023/07/05 07:44:04;;;;;;;0.30;0.30;;;;;;;;;;5079855;28;20032;-74
2023/07/05 07:46:30;;;;;;;0.50;0.50;;;;;;;;;;5096907;28;20027;-76
2023/07/05 07:48:56;;;;;;;1.45;0.85;;;;;;;;;;5088973;28;20036;-74
2023/07/05 07:51:23;;;;;;;0.40;0.40;;;;;;;;;;5089876;28;20115;-73
2023/07/05 07:53:52;;;;;;;0.70;0.70;;;;;;;;;;5083583;28;20043;-72
2023/07/05 07:56:18;;;;;;;0.88;0.60;;;;;;;;;;5089711;28;20031;-72
2023/07/05 07:58:46;;;;;;;0.30;0.30;;;;;;;;;;5099175;28;20032;-72
2023/07/05 08:01:12;;;;;;;1.48;1.38;;;;;;;;;;5073600;28;20040;-74
2023/07/05 08:03:38;;;;;;;0.43;0.43;;;;;;;;;;5068938;28;20021;-74
2023/07/05 08:06:03;;;;;;;2.60;2.00;;;;;;;;;;5085386;28;20516;-72
2023/07/05 08:08:28;;;;;;;0.40;0.40;;;;;;;;;;5076491;28;20100;-73
2023/07/05 08:10:54;;;;;;;0.38;0.38;;;;;;;;;;5068908;28;20111;-72
2023/07/05 08:13:19;;;;;;;0.43;0.43;;;;;;;;;;5088241;28;20479;-72
2023/07/05 08:15:44;;;;;;;0.85;0.85;;;;;;;;;;5089428;28;20099;-72
2023/07/05 08:18:10;;;;;;;3.40;1.20;;;;;;;;;;5088418;28;20413;-74
2023/07/05 08:20:36;;;;;;;1.15;1.00;;;;;;;;;;5069824;28;20115;-81
2023/07/05 08:23:01;;;;;;;1.42;1.05;;;;;;;;;;5091517;28;20055;-73
2023/07/05 08:25:27;;;;;;;5.68;3.45;;;;;;;;;;5083437;28;20408;-75
2023/07/05 08:27:52;;;;;;;0.82;0.82;;;;;;;;;;5078593;28;20033;-78
2023/07/05 08:30:17;;;;;;;1.98;1.45;;;;;;;;;;5071207;28;20464;-77
2023/07/05 08:32:43;;;;;;;3.78;1.58;;;;;;;;;;5069560;28;20028;-75
2023/07/05 08:35:08;;;;;;;0.80;0.80;;;;;;;;;;5069180;28;20064;-74
2023/07/05 08:37:33;;;;;;;0.57;0.57;;;;;;;;;;5069226;28;20025;-73
2023/07/05 08:39:59;;;;;;;2.55;0.75;;;;;;;;;;5068428;28;20037;-74
2023/07/05 08:42:36;;;;;;;1.42;1.08;;;;;;;;;;5084240;28;20032;-74
2023/07/05 08:45:09;;;;;;;0.30;0.30;;;;;;;;;;5088729;28;20035;-74
2023/07/05 08:47:45;;;;;;;0.47;0.47;;;;;;;;;;5088980;28;20024;-73
2023/07/05 08:50:27;;;;;;;4.05;2.75;;;;;;;;;;5070925;28;20058;-74
2023/07/05 08:53:05;;;;;;;1.17;0.85;;;;;;;;;;5083009;28;20388;-73
2023/07/05 08:55:50;;;;;;;7.05;2.67;;;;;;;;;;5068403;28;20040;-74
2023/07/05 08:58:21;;;;;;;7.25;2.75;;;;;;;;;;5049613;28;20135;-79
2023/07/05 09:00:51;;;;;;;1.42;1.33;;;;;;;;;;5073345;28;20042;-74
2023/07/05 09:03:16;;;;;;;1.38;1.10;;;;;;;;;;5091774;28;20032;-73
2023/07/05 09:05:46;;;;;;;1.48;0.95;;;;;;;;;;5083555;28;20036;-73
2023/07/05 09:08:20;;;;;;;8.52;2.17;;;;;;;;;;5088913;28;20413;-73
2023/07/05 09:10:52;;;;;;;5.88;2.28;;;;;;;;;;5086906;28;20040;-73
2023/07/05 09:13:35;;;;;;;0.45;0.45;;;;;;;;;;5066875;28;20036;-73
2023/07/05 09:16:04;;;;;;;8.68;1.42;;;;;;;;;;5048140;28;20430;-74
2023/07/05 09:18:29;;;;;;;;;;;;;;;;;;5066428;28;20039;-73
2023/07/05 09:21:14;;;;;;;1.50;0.97;;;;;;;;;;5066193;28;19916;-74
2023/07/05 09:23:45;;;;;;;1.58;1.48;;;;;;;;;;5067970;28;20317;-73
2023/07/05 09:26:17;;;;;;;1.92;1.73;;;;;;;;;;5049600;28;20028;-73
2023/07/05 09:28:49;;;;;;;1.85;1.48;;;;;;;;;;5086908;28;20032;-73
2023/07/05 09:31:16;;;;;;;0.40;0.40;;;;;;;;;;5087583;28;20028;-74
2023/07/05 09:33:44;;;;;;;2.17;0.80;;;;;;;;;;5088139;28;20463;-73
2023/07/05 09:36:19;;;;;;;6.03;2.25;;;;;;;;;;5087903;28;20081;-73
2023/07/05 09:38:47;;;;;;;1.83;1.60;;;;;;;;;;5095135;28;20032;-75
2023/07/05 09:41:16;;;;;;;1.05;0.60;;;;;;;;;;5069365;28;20131;-74
2023/07/05 09:43:41;;;;;;;;;;;;;;;;;;5088634;28;20081;-75
2023/07/05 09:46:11;;;;;;;0.50;0.50;;;;;;;;;;5087968;28;19915;-73
2023/07/05 09:48:41;;;;;;;2.05;1.35;;;;;;;;;;5087817;28;20468;-73
2023/07/05 09:51:07;;;;;;;8.23;3.13;;;;;;;;;;5098999;28;20049;-73
2023/07/05 09:53:51;;;;;;;1.98;1.83;;;;;;;;;;5081236;28;20017;-73
2023/07/05 09:56:26;;;;;;;1.38;1.15;;;;;;;;;;5091156;28;21074;-74
2023/07/05 09:59:04;;;;;;;6.38;3.08;;;;;;;;;;5090893;28;20043;-74
2023/07/05 10:01:30;;;;;;;0.93;0.68;;;;;;;;;;5096715;28;20059;-73
2023/07/05 10:03:57;;;;;;;0.43;0.43;;;;;;;;;;5104435;28;20480;-73
2023/07/05 10:06:24;;;;;;;1.42;1.42;;;;;;;;;;5090492;28;20341;-74
2023/07/05 10:08:50;;;;;;;2.03;1.17;;;;;;;;;;5091461;28;20051;-73
2023/07/05 10:11:22;;;;;;;0.65;0.65;;;;;;;;;;5090845;28;20028;-73
2023/07/05 10:14:00;;;;;;;8.35;2.78;;;;;;;;;;5091340;28;20036;-74
2023/07/05 10:16:25;;;;;;;0.70;0.70;;;;;;;;;;5081287;28;20029;-73
2023/07/05 10:18:50;;;;;;;12.00;3.42;;;;;;;;;;5090708;28;20039;-73
2023/07/05 10:21:19;;;;;;;1.65;0.60;;;;;;;;;;5073719;28;20468;-73
2023/07/05 10:23:47;;;;;;;0.30;0.30;;;;;;;;;;5070749;28;20036;-73
2023/07/05 10:26:12;;;;;;;0.85;0.73;;;;;;;;;;5048292;28;20033;-73
2023/07/05 10:28:40;;;;;;;0.50;0.50;;;;;;;;;;5090185;28;20024;-72
2023/07/05 10:31:06;;;;;;;2.28;1.30;;;;;;;;;;5091271;28;20081;-73
2023/07/05 10:33:33;;;;;;;1.60;0.88;;;;;;;;;;5090950;28;20103;-73
2023/07/05 10:36:02;;;;;;;3.92;2.17;;;;;;;;;;5085211;28;20058;-73
2023/07/05 10:38:40;;;;;;;3.55;2.05;;;;;;;;;;5070199;28;20182;-73
2023/07/05 10:41:26;;;;;;;8.60;3.80;;;;;;;;;;5070693;28;20119;-73
2023/07/05 10:44:10;;;;;;;0.32;0.32;;;;;;;;;;5069896;28;20066;-74
2023/07/05 10:46:37;;;;;;;4.75;2.22;;;;;;;;;;5070412;28;20102;-73
2023/07/05 10:49:07;;;;;;;0.52;0.52;;;;;;;;;;5070152;28;20041;-74
2023/07/05 10:51:37;;;;;;;1.15;0.88;;;;;;;;;;5070714;28;20097;-72
2023/07/05 10:54:09;;;;;;;6.03;2.75;;;;;;;;;;5096300;28;20030;-74
2023/07/05 10:56:36;;;;;;;3.08;1.45;;;;;;;;;;5091514;28;20459;-74
2023/07/05 10:59:09;;;;;;;3.97;2.55;;;;;;;;;;5072535;28;20090;-73
2023/07/05 11:01:42;;;;;;;0.95;0.95;;;;;;;;;;5070198;28;20459;-73
2023/07/05 11:04:12;;;;;;;8.35;3.63;;;;;;;;;;5083689;28;20020;-73
2023/07/05 11:06:40;;;;;;;3.70;2.45;;;;;;;;;;5087944;28;20459;-72
2023/07/05 11:09:07;;;;;;;1.33;1.23;;;;;;;;;;5084986;28;20074;-73
2023/07/05 11:11:37;;;;;;;13.32;2.97;;;;;;;;;;5087665;28;20487;-72
2023/07/05 11:14:03;;;;;;;3.15;1.90;;;;;;;;;;5074188;28;20080;-73
2023/07/05 11:16:29;;;;;;;6.70;2.78;;;;;;;;;;5090497;28;20028;-72
2023/07/05 11:19:05;;;;;;;2.47;1.50;;;;;;;;;;5089810;28;20472;-73
2023/07/05 11:21:36;;;;;;;2.95;1.42;;;;;;;;;;5094416;28;20189;-74
2023/07/05 11:24:04;;;;;;;13.70;4.50;;;;;;;;;;5090373;28;20046;-73
2023/07/05 11:26:32;;;;;;;4.95;2.83;;;;;;;;;;5070456;28;20040;-73
2023/07/05 11:28:58;;;;;;;2.78;2.55;;;;;;;;;;5084556;28;20394;-72
2023/07/05 11:31:27;;;;;;;4.78;2.60;;;;;;;;;;5101919;28;20470;-73
2023/07/05 11:34:14;;;;;;;6.38;3.95;;;;;;;;;;5083548;28;20496;-73
2023/07/05 11:36:39;;;;;;;9.77;3.80;;;;;;;;;;5092593;28;20028;-73
2023/07/05 11:39:07;;;;;;;5.93;2.28;;;;;;;;;;5089702;28;20035;-72
2023/07/05 11:41:34;;;;;;;7.32;2.45;;;;;;;;;;5067291;28;20047;-73
2023/07/05 11:44:01;;;;;;;8.05;4.60;;;;;;;;;;5058283;28;20097;-73
2023/07/05 11:46:40;;;;;;;7.82;3.38;;;;;;;;;;5089684;28;20058;-72
2023/07/05 11:49:22;;;;;;;5.90;2.13;;;;;;;;;;5088873;28;20028;-73
2023/07/05 11:51:54;;;;;;;4.57;3.20;;;;;;;;;;5090042;28;20032;-74
2023/07/05 11:54:21;;;;;;;12.75;2.60;;;;;;;;;;5076340;28;20120;-74
2023/07/05 11:56:47;;;;;;;2.00;1.60;;;;;;;;;;5080404;28;20072;-74
2023/07/05 11:59:14;;;;;;;2.42;1.60;;;;;;;;;;5069316;28;20118;-72
2023/07/05 12:01:41;;;;;;;3.45;2.13;;;;;;;;;;5087403;28;20039;-72
2023/07/05 12:04:18;;;;;;;8.07;2.63;;;;;;;;;;5069231;28;20040;-72
2023/07/05 12:06:45;;;;;;;8.93;1.50;;;;;;;;;;5077037;28;20078;-72
2023/07/05 12:09:16;;;;;;;6.13;2.78;;;;;;;;;;5047171;28;20053;-73
2023/07/05 12:11:41;;;;;;;2.83;2.30;;;;;;;;;;5072693;28;20407;-73
2023/07/05 12:14:19;;;;;;;1.98;1.42;;;;;;;;;;5084850;28;20468;-74
2023/07/05 12:16:44;;;;;;;1.45;1.10;;;;;;;;;;5086089;28;20054;-72
2023/07/05 12:19:16;;;;;;;9.15;1.67;;;;;;;;;;5079268;28;20469;-76
2023/07/05 12:21:46;;;;;;;2.30;1.08;;;;;;;;;;5066654;28;20037;-73
2023/07/05 12:24:11;;;;;;;4.13;1.58;;;;;;;;;;5067172;28;20122;-74
2023/07/05 12:26:38;;;;;;;8.32;2.97;;;;;;;;;;5067051;28;20502;-73
2023/07/05 12:29:23;;;;;;;6.63;2.15;;;;;;;;;;5076734;28;20042;-72
2023/07/05 12:32:01;;;;;;;2.78;1.75;;;;;;;;;;5086797;28;20471;-73
2023/07/05 12:34:26;;;;;;;4.43;2.33;;;;;;;;;;5083130;28;20031;-74
2023/07/05 12:36:52;;;;;;;3.50;1.77;;;;;;;;;;5078601;28;20027;-72
2023/07/05 12:39:18;;;;;;;3.05;1.60;;;;;;;;;;5078151;28;20040;-73
2023/07/05 12:41:57;;;;;;;0.73;0.65;;;;;;;;;;5074926;28;20040;-73
2023/07/05 12:44:23;;;;;;;12.15;1.98;;;;;;;;;;5084090;28;20036;-73
2023/07/05 12:46:48;;;;;;;3.42;2.13;;;;;;;;;;5084953;28;20042;-72
2023/07/05 12:49:26;;;;;;;6.60;2.72;;;;;;;;;;5086684;28;20119;-73
2023/07/05 12:51:55;;;;;;;6.65;2.78;;;;;;;;;;5096301;28;20468;-73
2023/07/05 12:54:20;;;;;;;;;;;;;;;;;;5093913;28;20078;-72
2023/07/05 12:56:47;;;;;;;5.30;1.90;;;;;;;;;;5084704;28;20331;-73
2023/07/05 12:59:20;;;;;;;6.45;3.55;;;;;;;;;;5082100;28;20119;-74
2023/07/05 13:01:47;;;;;;;5.20;2.08;;;;;;;;;;5070726;28;20473;-73
2023/07/05 13:04:17;;;;;;;7.13;1.90;;;;;;;;;;5086423;28;20107;-73
2023/07/05 13:06:43;;;;;;;2.10;0.88;;;;;;;;;;5086742;28;20280;-74
2023/07/05 13:09:08;;;;;;;3.50;2.00;;;;;;;;;;5085764;28;20024;-73
2023/07/05 13:11:34;;;;;;;2.35;1.63;;;;;;;;;;5081583;28;20483;-73
2023/07/05 13:14:01;;;;;;;9.30;2.13;;;;;;;;;;5066479;28;20483;-73
2023/07/05 13:16:26;;;;;;;4.80;2.30;;;;;;;;;;5065749;28;20028;-72
2023/07/05 13:18:57;;;;;;;2.43;1.47;;;;;;;;;;5066186;28;20268;-72
2023/07/05 13:21:23;;;;;;;3.40;1.55;;;;;;;;;;5065593;28;20329;-72
2023/07/05 13:23:49;;;;;;;2.47;1.15;;;;;;;;;;5074308;28;20067;-72
2023/07/05 13:26:30;;;;;;;1.75;1.10;;;;;;;;;;5085779;28;20036;-73
2023/07/05 13:28:56;;;;;;;4.80;2.58;;;;;;;;;;5086316;28;20419;-72
2023/07/05 13:31:21;;;;;;;4.43;2.03;;;;;;;;;;5085993;28;20044;-73
2023/07/05 13:33:47;;;;;;;3.72;1.48;;;;;;;;;;5079757;28;20548;-72
2023/07/05 13:36:12;;;;;;;4.75;1.80;;;;;;;;;;5085591;28;20028;-73
2023/07/05 13:38:38;;;;;;;1.55;1.00;;;;;;;;;;5081785;28;20395;-71
2023/07/05 13:41:05;;;;;;;3.92;1.75;;;;;;;;;;5065867;28;20036;-73
2023/07/05 13:43:31;;;;;;;6.28;2.30;;;;;;;;;;5066067;28;20040;-73
2023/07/05 13:46:05;;;;;;;2.17;1.73;;;;;;;;;;5065802;28;20020;-73
2023/07/05 13:48:31;;;;;;;4.20;1.95;;;;;;;;;;5081784;28;20113;-73
2023/07/05 13:50:57;;;;;;;5.15;1.50;;;;;;;;;;5090594;28;20031;-73
2023/07/05 13:53:24;;;;;;;1.95;1.05;;;;;;;;;;5086679;28;20036;-73
2023/07/05 13:55:50;;;;;;;4.63;1.85;;;;;;;;;;5067584;28;20032;-74
2023/07/05 13:58:16;;;;;;;1.15;0.93;;;;;;;;;;5086081;28;20050;-73
2023/07/05 14:00:44;;;;;;;2.65;1.65;;;;;;;;;;5079330;28;20044;-73
2023/07/05 14:03:09;;;;;;;8.65;1.73;;;;;;;;;;5095854;28;20020;-73
2023/07/05 14:05:35;;;;;;;4.85;1.25;;;;;;;;;;5084922;28;20044;-72
2023/07/05 14:08:02;;;;;;;4.63;2.42;;;;;;;;;;5086139;28;20064;-74
2023/07/05 14:10:30;;;;;;;3.17;1.67;;;;;;;;;;5085586;28;20040;-73
2023/07/05 14:12:56;;;;;;;6.80;2.25;;;;;;;;;;5086180;28;20108;-73
2023/07/05 14:15:30;;;;;;;1.70;1.23;;;;;;;;;;5086094;28;20115;-73
2023/07/05 14:17:56;;;;;;;3.03;1.83;;;;;;;;;;5087785;28;20387;-73
2023/07/05 14:20:21;;;;;;;4.63;2.10;;;;;;;;;;5085413;28;20040;-71
2023/07/05 14:22:47;;;;;;;6.18;1.73;;;;;;;;;;5085625;28;20028;-71
2023/07/05 14:25:18;;;;;;;1.55;1.40;;;;;;;;;;5085889;28;20078;-71
2023/07/05 14:27:44;;;;;;;5.28;2.63;;;;;;;;;;5090626;28;20027;-71
2023/07/05 14:30:10;;;;;;;7.53;1.92;;;;;;;;;;5097124;28;20032;-71
2023/07/05 14:32:35;;;;;;;1.90;1.48;;;;;;;;;;5105672;28;20291;-70
2023/07/05 14:35:01;;;;;;;2.88;1.40;;;;;;;;;;5105630;28;20040;-71
2023/07/05 14:37:28;;;;;;;8.95;2.30;;;;;;;;;;5071761;28;20168;-70
2023/07/05 14:39:53;;;;;;;2.30;1.40;;;;;;;;;;5086364;28;20039;-70
2023/07/05 14:42:19;;;;;;;6.50;2.10;;;;;;;;;;5088438;28;20646;-72
2023/07/05 14:44:44;;;;;;;3.90;1.95;;;;;;;;;;5088164;28;20040;-72
2023/07/05 14:47:10;;;;;;;4.53;2.05;;;;;;;;;;5089006;28;20035;-72